Time;durP1;ratioP1;P1;durP2;ratioP2;P2;SDS_P1;SDS_P2;PMS_P1;PMS_P2;Temp;Humidity;BMP_temperature;BMP_pressure;BME280_temperature;BME280_humidity;BME280_pressure;Samples;Min_cycle;Max_cycle;Signal;HPM_P1;HPM_P2
2024/01/02 00:00:14;;;;;;;0.10;0.10;;;7.30;99.90;;;;;;5080356;28;20047;-79
2024/01/02 00:02:41;;;;;;;0.90;0.35;;;7.30;99.90;;;;;;5081224;28;20035;-78
2024/01/02 00:05:07;;;;;;;0.17;0.17;;;7.20;99.90;;;;;;5080866;28;20039;-79
2024/01/02 00:07:33;;;;;;;0.73;0.73;;;7.30;99.90;;;;;;5042847;28;20048;-77
2024/01/02 00:10:00;;;;;;;0.10;0.10;;;7.30;99.90;;;;;;5076769;28;20043;-77
2024/01/02 00:12:26;;;;;;;0.10;0.10;;;7.30;99.90;;;;;;5063460;28;20037;-77
2024/01/02 00:14:53;;;;;;;1.20;1.10;;;7.30;99.90;;;;;;5062719;28;20058;-77
2024/01/02 00:17:19;;;;;;;0.20;0.20;;;7.30;99.90;;;;;;5075811;28;20028;-76
2024/01/02 00:19:45;;;;;;;0.32;0.32;;;7.30;99.90;;;;;;5080712;28;20047;-76
2024/01/02 00:22:11;;;;;;;0.10;0.10;;;7.30;99.90;;;;;;5074936;28;20037;-83
2024/01/02 00:24:38;;;;;;;10.63;0.40;;;7.20;99.90;;;;;;5077034;28;20029;-77
2024/01/02 00:27:04;;;;;;;0.22;0.22;;;7.30;99.90;;;;;;5076503;28;20035;-76
2024/01/02 00:29:30;;;;;;;10.98;0.90;;;7.30;99.90;;;;;;5058464;28;20063;-76
2024/01/02 00:31:56;;;;;;;0.10;0.10;;;7.30;99.90;;;;;;5077096;28;20774;-76
2024/01/02 00:34:23;;;;;;;0.30;0.30;;;7.20;99.90;;;;;;5058042;28;20045;-77
2024/01/02 00:36:50;;;;;;;0.40;0.40;;;7.20;99.90;;;;;;5078582;28;20498;-78
2024/01/02 00:39:16;;;;;;;1.90;0.30;;;7.30;99.90;;;;;;5064201;28;20079;-78
2024/01/02 00:41:43;;;;;;;0.10;0.10;;;7.30;99.90;;;;;;5075583;28;20051;-77
2024/01/02 00:44:09;;;;;;;0.38;0.35;;;7.30;99.90;;;;;;5077431;28;20041;-76
2024/01/02 00:46:35;;;;;;;0.47;0.47;;;7.30;99.90;;;;;;5063274;28;20044;-77
2024/01/02 00:49:02;;;;;;;3.92;1.75;;;7.30;99.90;;;;;;5080561;28;20054;-77
2024/01/02 00:51:29;;;;;;;0.65;0.55;;;7.30;99.90;;;;;;5078454;28;20039;-77
2024/01/02 00:53:55;;;;;;;0.20;0.20;;;7.30;99.90;;;;;;5080847;28;20460;-77
2024/01/02 00:56:22;;;;;;;4.38;0.68;;;7.30;99.90;;;;;;5073062;28;20035;-77
2024/01/02 00:58:48;;;;;;;0.10;0.10;;;7.40;99.90;;;;;;5081374;28;20032;-78
2024/01/02 01:01:14;;;;;;;0.10;0.10;;;7.40;99.90;;;;;;5063749;28;20041;-80
2024/01/02 01:03:40;;;;;;;0.95;0.95;;;7.40;99.90;;;;;;5079036;28;20029;-78
2024/01/02 01:06:07;;;;;;;0.10;0.10;;;7.40;99.90;;;;;;5077303;28;20028;-77
2024/01/02 01:08:33;;;;;;;0.10;0.10;;;7.40;99.90;;;;;;5081578;28;20029;-78
2024/01/02 01:10:59;;;;;;;0.10;0.10;;;7.40;99.90;;;;;;5076586;28;20051;-78
2024/01/02 01:13:25;;;;;;;0.43;0.40;;;7.40;99.90;;;;;;5076341;28;20036;-76
2024/01/02 01:15:51;;;;;;;0.10;0.10;;;7.40;99.90;;;;;;5078766;28;20024;-79
2024/01/02 01:18:17;;;;;;;0.25;0.25;;;7.40;99.90;;;;;;5077408;28;20362;-76
2024/01/02 01:20:44;;;;;;;0.65;0.65;;;7.40;99.90;;;;;;5079126;28;20039;-76
2024/01/02 01:23:10;;;;;;;0.20;0.20;;;7.40;99.90;;;;;;5065380;28;20028;-77
2024/01/02 01:25:36;;;;;;;0.30;0.30;;;7.40;99.90;;;;;;5077658;28;20028;-77
2024/01/02 01:28:03;;;;;;;0.17;0.17;;;7.40;99.90;;;;;;5080641;28;20059;-78
2024/01/02 01:30:30;;;;;;;0.10;0.10;;;7.40;99.90;;;;;;5078333;28;20041;-76
2024/01/02 01:32:56;;;;;;;0.10;0.10;;;7.40;99.90;;;;;;5049288;28;20040;-76
2024/01/02 01:35:22;;;;;;;1.65;0.95;;;7.40;99.90;;;;;;5063756;28;20052;-77
2024/01/02 01:37:48;;;;;;;0.10;0.10;;;7.40;99.90;;;;;;5066584;28;20059;-76
2024/01/02 01:40:15;;;;;;;0.10;0.10;;;7.40;99.90;;;;;;5074667;28;20056;-84
2024/01/02 01:42:41;;;;;;;0.10;0.10;;;7.40;99.90;;;;;;5081571;28;20043;-76
2024/01/02 01:45:08;;;;;;;0.13;0.13;;;7.40;99.90;;;;;;5077180;28;20032;-76
2024/01/02 01:47:34;;;;;;;0.30;0.30;;;7.40;99.90;;;;;;5035542;28;20037;-76
2024/01/02 01:50:01;;;;;;;0.47;0.47;;;7.40;99.90;;;;;;5081332;28;20062;-77
2024/01/02 01:52:32;;;;;;;0.10;0.10;;;7.40;99.90;;;;;;5078034;28;20029;-76
2024/01/02 01:54:59;;;;;;;0.10;0.10;;;7.30;99.90;;;;;;5051853;28;20353;-77
2024/01/02 01:57:25;;;;;;;0.40;0.40;;;7.30;99.90;;;;;;5062882;28;20032;-76
2024/01/02 01:59:52;;;;;;;0.98;0.90;;;7.30;99.90;;;;;;5061223;28;20047;-77
2024/01/02 02:02:19;;;;;;;0.40;0.32;;;7.30;99.90;;;;;;5070227;28;20067;-79
2024/01/02 02:04:49;;;;;;;0.10;0.10;;;7.30;1.00;;;;;;5085807;28;20028;-78
2024/01/02 02:07:15;;;;;;;0.28;0.28;;;7.30;1.00;;;;;;5067248;28;20480;-83
2024/01/02 02:09:41;;;;;;;0.30;0.30;;;7.20;1.00;;;;;;5079973;28;20457;-78
2024/01/02 02:12:07;;;;;;;0.10;0.10;;;7.20;1.00;;;;;;5082022;28;20024;-77
2024/01/02 02:14:34;;;;;;;0.10;0.10;;;7.20;1.00;;;;;;5080194;28;20567;-76
2024/01/02 02:17:00;;;;;;;0.68;0.57;;;7.10;1.00;;;;;;5052663;28;20039;-77
2024/01/02 02:19:27;;;;;;;0.10;0.10;;;7.10;6.40;;;;;;5064643;28;20040;-77
2024/01/02 02:21:55;;;;;;;0.10;0.10;;;7.00;21.80;;;;;;5061672;28;20397;-77
2024/01/02 02:24:22;;;;;;;0.30;0.30;;;7.00;37.70;;;;;;5065367;28;20032;-77
2024/01/02 02:26:48;;;;;;;0.10;0.10;;;6.90;65.20;;;;;;5086291;28;20094;-77
2024/01/02 02:29:14;;;;;;;0.20;0.20;;;6.90;94.00;;;;;;5082709;28;20028;-83
2024/01/02 02:31:40;;;;;;;2.28;2.08;;;6.90;99.30;;;;;;5084129;28;20035;-78
2024/01/02 02:34:07;;;;;;;3.83;3.50;;;6.90;99.90;;;;;;5095385;28;20379;-78
2024/01/02 02:36:33;;;;;;;3.97;3.10;;;6.80;99.90;;;;;;5081671;28;20048;-78
2024/01/02 02:39:00;;;;;;;2.45;1.90;;;6.80;99.90;;;;;;5064401;28;20044;-77
2024/01/02 02:41:26;;;;;;;1.85;1.67;;;6.80;99.90;;;;;;5063684;28;20043;-77
2024/01/02 02:43:52;;;;;;;0.32;0.32;;;6.70;99.90;;;;;;5083053;28;20036;-80
2024/01/02 02:46:19;;;;;;;0.68;0.68;;;6.70;99.90;;;;;;5061064;28;20040;-77
2024/01/02 02:48:45;;;;;;;1.65;1.08;;;6.70;99.90;;;;;;5066919;28;20044;-80
2024/01/02 02:51:12;;;;;;;0.32;0.30;;;6.70;99.90;;;;;;5080458;28;20041;-79
2024/01/02 02:53:38;;;;;;;0.70;0.70;;;6.70;99.90;;;;;;5084589;28;20035;-78
2024/01/02 02:56:04;;;;;;;1.58;0.63;;;6.60;99.90;;;;;;5080093;28;20028;-78
2024/01/02 02:58:30;;;;;;;0.68;0.68;;;6.60;99.90;;;;;;5080342;28;20040;-80
2024/01/02 03:00:57;;;;;;;0.10;0.10;;;6.60;1.00;;;;;;5078105;28;20033;-80
2024/01/02 03:03:23;;;;;;;0.25;0.25;;;6.60;1.00;;;;;;5067613;28;20041;-80
2024/01/02 03:05:49;;;;;;;0.40;0.32;;;6.50;1.00;;;;;;5080297;28;20059;-81
2024/01/02 03:08:16;;;;;;;1.23;1.13;;;6.50;1.00;;;;;;5082147;28;20028;-81
2024/01/02 03:10:43;;;;;;;0.75;0.75;;;6.50;1.00;;;;;;5063936;28;20095;-80
2024/01/02 03:13:10;;;;;;;0.10;0.10;;;6.50;1.00;;;;;;5085650;28;20032;-79
2024/01/02 03:15:36;;;;;;;0.63;0.50;;;6.50;1.00;;;;;;5079081;28;20017;-77
2024/01/02 03:18:02;;;;;;;0.32;0.32;;;6.50;1.00;;;;;;5080230;28;20040;-78
2024/01/02 03:20:28;;;;;;;1.35;1.25;;;6.50;1.00;;;;;;5046243;28;20048;-78
2024/01/02 03:22:55;;;;;;;0.10;0.10;;;6.40;1.00;;;;;;5081394;28;20035;-76
2024/01/02 03:25:21;;;;;;;0.10;0.10;;;6.40;6.20;;;;;;5063448;28;20495;-76
2024/01/02 03:27:48;;;;;;;0.10;0.10;;;6.40;11.70;;;;;;5082481;28;20039;-79
2024/01/02 03:30:14;;;;;;;0.17;0.17;;;6.40;18.30;;;;;;5079546;28;20047;-77
2024/01/02 03:32:40;;;;;;;0.10;0.10;;;6.40;28.60;;;;;;5070222;28;20051;-78
2024/01/02 03:35:07;;;;;;;0.10;0.10;;;6.40;37.10;;;;;;5077406;28;20420;-78
2024/01/02 03:37:33;;;;;;;0.10;0.10;;;6.40;48.60;;;;;;5047831;28;20477;-79
2024/01/02 03:39:59;;;;;;;0.10;0.10;;;6.40;72.50;;;;;;5028936;28;20474;-77
2024/01/02 03:42:26;;;;;;;0.10;0.10;;;6.40;87.90;;;;;;5073674;28;20032;-79
2024/01/02 03:44:52;;;;;;;0.10;0.10;;;6.40;99.90;;;;;;5033963;28;20045;-79
2024/01/02 03:47:18;;;;;;;1.02;1.00;;;6.40;99.90;;;;;;5041860;28;20048;-81
2024/01/02 03:49:44;;;;;;;0.10;0.10;;;6.40;99.90;;;;;;5046107;28;20397;-80
2024/01/02 03:52:11;;;;;;;0.10;0.10;;;6.40;99.90;;;;;;5042909;28;20045;-79
2024/01/02 03:54:37;;;;;;;0.10;0.10;;;6.40;99.90;;;;;;5070328;28;20028;-80
2024/01/02 03:57:03;;;;;;;16.55;0.70;;;6.40;99.90;;;;;;5048953;28;20043;-80
2024/01/02 03:59:30;;;;;;;0.10;0.10;;;6.40;99.90;;;;;;5054691;28;20019;-79
2024/01/02 04:01:56;;;;;;;0.10;0.10;;;6.50;99.90;;;;;;5054942;28;20047;-76
2024/01/02 04:04:22;;;;;;;0.10;0.10;;;6.50;99.90;;;;;;5081721;28;20047;-79
2024/01/02 04:06:49;;;;;;;0.22;0.22;;;6.50;99.90;;;;;;5077055;28;20054;-78
2024/01/02 04:09:15;;;;;;;0.28;0.28;;;6.50;99.90;;;;;;5046151;28;20154;-77
2024/01/02 04:11:42;;;;;;;0.10;0.10;;;6.50;99.90;;;;;;5042957;28;20040;-75
2024/01/02 04:14:08;;;;;;;0.10;0.10;;;6.50;99.90;;;;;;5065651;28;20486;-76
2024/01/02 04:16:36;;;;;;;0.10;0.10;;;6.60;99.90;;;;;;5068510;28;20028;-78
2024/01/02 04:19:03;;;;;;;0.20;0.20;;;6.60;99.90;;;;;;5066485;28;20058;-77
2024/01/02 04:21:29;;;;;;;0.10;0.10;;;6.50;99.90;;;;;;5079947;28;20037;-76
2024/01/02 04:23:56;;;;;;;0.10;0.10;;;6.60;99.90;;;;;;5058332;28;20051;-78
2024/01/02 04:26:22;;;;;;;0.10;0.10;;;6.60;99.90;;;;;;5061936;28;20033;-76
2024/01/02 04:28:48;;;;;;;0.10;0.10;;;6.50;99.90;;;;;;5048406;28;20066;-77
2024/01/02 04:31:14;;;;;;;0.10;0.10;;;6.50;99.90;;;;;;5077055;28;20041;-76
2024/01/02 04:33:41;;;;;;;0.10;0.10;;;6.50;99.90;;;;;;5077799;28;20044;-76
2024/01/02 04:36:07;;;;;;;0.10;0.10;;;6.60;99.90;;;;;;5073741;28;20053;-77
2024/01/02 04:38:33;;;;;;;0.40;0.40;;;6.60;99.90;;;;;;5079522;28;20039;-76
2024/01/02 04:40:59;;;;;;;0.10;0.10;;;6.60;99.90;;;;;;5093237;28;20032;-75
2024/01/02 04:43:27;;;;;;;0.10;0.10;;;6.60;99.90;;;;;;5078642;28;20040;-77
2024/01/02 04:45:53;;;;;;;0.10;0.10;;;6.60;99.90;;;;;;5098834;28;20046;-76
2024/01/02 04:48:20;;;;;;;1.80;1.20;;;6.60;99.90;;;;;;5075155;28;20044;-80
2024/01/02 04:50:47;;;;;;;1.17;0.98;;;6.60;99.90;;;;;;5069770;28;20065;-77
2024/01/02 04:53:13;;;;;;;3.72;3.45;;;6.60;99.90;;;;;;5083596;28;20035;-77
2024/01/02 04:55:39;;;;;;;4.53;4.22;;;6.70;99.90;;;;;;5063299;28;20476;-76
2024/01/02 04:58:06;;;;;;;7.47;6.78;;;6.60;99.90;;;;;;5087417;28;20512;-76
2024/01/02 05:00:32;;;;;;;2.20;2.10;;;6.60;99.90;;;;;;5067605;28;20484;-78
2024/01/02 05:02:59;;;;;;;0.20;0.20;;;6.60;99.90;;;;;;5066333;28;20036;-77
2024/01/02 05:05:25;;;;;;;0.43;0.43;;;6.60;99.90;;;;;;5055580;28;20413;-77
2024/01/02 05:07:51;;;;;;;0.10;0.10;;;6.60;99.90;;;;;;5073118;28;20086;-79
2024/01/02 05:10:17;;;;;;;0.20;0.20;;;6.60;99.90;;;;;;5069390;28;20049;-79
2024/01/02 05:12:45;;;;;;;0.85;0.85;;;6.60;99.90;;;;;;5064382;28;20040;-75
2024/01/02 05:15:11;;;;;;;0.10;0.10;;;6.70;99.90;;;;;;5080780;28;20032;-77
2024/01/02 05:17:37;;;;;;;0.10;0.10;;;6.70;99.90;;;;;;5060088;28;20040;-76
2024/01/02 05:20:04;;;;;;;0.10;0.10;;;6.70;99.90;;;;;;5072171;28;20051;-79
2024/01/02 05:22:30;;;;;;;0.10;0.10;;;6.70;99.90;;;;;;5078259;28;20024;-75
2024/01/02 05:24:56;;;;;;;0.10;0.10;;;6.60;99.90;;;;;;5049173;28;20048;-74
2024/01/02 05:27:23;;;;;;;0.98;0.45;;;6.70;99.90;;;;;;5081392;28;20024;-77
2024/01/02 05:29:49;;;;;;;4.03;0.95;;;6.70;99.90;;;;;;5047292;28;20041;-76
2024/01/02 05:32:15;;;;;;;0.30;0.30;;;6.70;99.90;;;;;;5080627;28;20036;-74
2024/01/02 05:34:41;;;;;;;1.75;1.65;;;6.70;99.90;;;;;;5065127;28;20096;-75
2024/01/02 05:37:08;;;;;;;0.32;0.32;;;6.70;99.90;;;;;;5063474;28;20032;-76
2024/01/02 05:39:34;;;;;;;0.10;0.10;;;6.70;99.90;;;;;;5066828;28;20024;-76
2024/01/02 05:42:00;;;;;;;0.10;0.10;;;6.70;99.90;;;;;;5055032;28;20044;-75
2024/01/02 05:44:26;;;;;;;0.30;0.30;;;6.70;99.90;;;;;;5040034;28;20036;-75
2024/01/02 05:46:53;;;;;;;0.10;0.10;;;6.70;99.90;;;;;;5055113;28;20045;-77
2024/01/02 05:49:19;;;;;;;0.10;0.10;;;6.70;99.90;;;;;;5062469;28;20032;-83
2024/01/02 05:51:45;;;;;;;0.10;0.10;;;6.70;99.90;;;;;;5061190;28;20033;-76
2024/01/02 05:54:11;;;;;;;0.52;0.47;;;6.70;99.90;;;;;;5061482;28;20025;-80
2024/01/02 05:56:38;;;;;;;0.10;0.10;;;6.80;99.90;;;;;;5036130;28;20037;-75
2024/01/02 05:59:04;;;;;;;2.75;0.47;;;6.80;99.90;;;;;;5033856;28;20037;-77
2024/01/02 06:01:31;;;;;;;0.10;0.10;;;6.80;99.90;;;;;;5061091;28;20041;-77
2024/01/02 06:03:57;;;;;;;0.25;0.25;;;6.80;99.90;;;;;;5038836;28;20033;-77
2024/01/02 06:06:23;;;;;;;0.45;0.45;;;6.90;99.90;;;;;;5051496;28;20044;-76
2024/01/02 06:08:49;;;;;;;0.10;0.10;;;6.90;99.90;;;;;;5047733;28;20032;-76
2024/01/02 06:11:16;;;;;;;0.10;0.10;;;6.80;99.90;;;;;;5066727;28;20043;-78
2024/01/02 06:13:42;;;;;;;0.10;0.10;;;6.90;99.90;;;;;;5043458;28;20025;-78
2024/01/02 06:16:10;;;;;;;0.10;0.10;;;6.90;99.90;;;;;;5049440;28;20503;-75
2024/01/02 06:18:37;;;;;;;0.10;0.10;;;6.80;99.90;;;;;;5065573;28;20029;-79
2024/01/02 06:21:04;;;;;;;0.10;0.10;;;6.90;99.90;;;;;;5070270;28;20047;-79
2024/01/02 06:23:32;;;;;;;0.10;0.10;;;6.90;99.90;;;;;;5042460;28;20043;-78
2024/01/02 06:25:59;;;;;;;0.10;0.10;;;7.00;99.90;;;;;;5058650;28;20039;-80
2024/01/02 06:28:25;;;;;;;0.10;0.10;;;6.90;99.90;;;;;;5065276;28;20021;-78
2024/01/02 06:30:51;;;;;;;0.10;0.10;;;7.00;99.90;;;;;;5060942;28;20041;-77
2024/01/02 06:33:18;;;;;;;0.10;0.10;;;7.00;99.90;;;;;;5058186;28;20033;-78
2024/01/02 06:35:44;;;;;;;0.10;0.10;;;7.00;99.90;;;;;;5074108;28;20496;-76
2024/01/02 06:38:10;;;;;;;0.10;0.10;;;7.00;99.90;;;;;;5081438;28;20051;-76
2024/01/02 06:40:36;;;;;;;0.10;0.10;;;7.10;99.90;;;;;;5080480;28;20028;-81
2024/01/02 06:43:03;;;;;;;0.10;0.10;;;7.00;99.90;;;;;;5081291;28;20037;-79
2024/01/02 06:45:29;;;;;;;0.10;0.10;;;7.00;99.90;;;;;;5071489;28;20033;-81
2024/01/02 06:47:56;;;;;;;0.10;0.10;;;7.00;99.90;;;;;;5086093;28;20051;-79
2024/01/02 06:50:22;;;;;;;0.10;0.10;;;7.10;99.90;;;;;;5087736;28;20032;-81
2024/01/02 06:52:48;;;;;;;0.10;0.10;;;7.10;99.90;;;;;;5072636;28;20044;-78
2024/01/02 06:55:14;;;;;;;0.10;0.10;;;7.10;99.90;;;;;;5078602;28;20055;-79
2024/01/02 06:57:40;;;;;;;0.10;0.10;;;7.10;99.90;;;;;;5068443;28;20028;-80
2024/01/02 07:00:07;;;;;;;0.10;0.10;;;7.10;99.90;;;;;;5082517;28;20039;-77
2024/01/02 07:02:34;;;;;;;0.10;0.10;;;7.10;99.90;;;;;;5064502;28;20043;-80
2024/01/02 07:05:00;;;;;;;0.10;0.10;;;7.10;99.90;;;;;;5083395;28;20043;-77
2024/01/02 07:07:26;;;;;;;0.10;0.10;;;7.20;99.90;;;;;;5063928;28;20047;-80
2024/01/02 07:09:52;;;;;;;0.10;0.10;;;7.20;99.90;;;;;;5066695;28;20063;-81
2024/01/02 07:12:19;;;;;;;0.10;0.10;;;7.20;99.90;;;;;;5065192;28;20485;-80
2024/01/02 07:14:45;;;;;;;0.30;0.30;;;7.20;99.90;;;;;;5082456;28;20027;-79
2024/01/02 07:17:11;;;;;;;0.10;0.10;;;7.20;99.90;;;;;;5090649;28;20039;-80
2024/01/02 07:19:37;;;;;;;0.10;0.10;;;7.20;99.90;;;;;;5087247;28;20501;-79
2024/01/02 07:22:03;;;;;;;0.10;0.10;;;7.30;99.90;;;;;;5081689;28;20047;-79
2024/01/02 07:24:31;;;;;;;0.10;0.10;;;7.30;99.90;;;;;;5081960;28;20712;-81
2024/01/02 07:26:57;;;;;;;0.10;0.10;;;7.30;99.90;;;;;;5080862;28;20388;-77
2024/01/02 07:29:23;;;;;;;0.10;0.10;;;7.30;99.90;;;;;;5080775;28;20032;-76
2024/01/02 07:31:49;;;;;;;0.10;0.10;;;7.30;99.90;;;;;;5077706;28;20032;-76
2024/01/02 07:34:15;;;;;;;0.30;0.30;;;7.40;99.90;;;;;;5070428;28;20028;-76
2024/01/02 07:36:41;;;;;;;0.10;0.10;;;7.40;99.90;;;;;;5081080;28;20044;-76
2024/01/02 07:39:08;;;;;;;0.10;0.10;;;7.40;99.90;;;;;;5076938;28;20032;-76
2024/01/02 07:41:34;;;;;;;0.10;0.10;;;7.30;99.90;;;;;;5078467;28;20035;-77
2024/01/02 07:44:00;;;;;;;0.10;0.10;;;7.40;99.90;;;;;;5079592;28;20036;-80
2024/01/02 07:46:27;;;;;;;0.10;0.10;;;7.40;99.90;;;;;;5082675;28;20412;-77
2024/01/02 07:48:53;;;;;;;0.10;0.10;;;7.50;99.90;;;;;;5067065;28;20044;-78
2024/01/02 07:51:19;;;;;;;0.10;0.10;;;7.50;99.90;;;;;;5079135;28;20496;-78
2024/01/02 07:53:46;;;;;;;0.10;0.10;;;7.50;99.90;;;;;;5080411;28;20024;-77
2024/01/02 07:56:12;;;;;;;0.10;0.10;;;7.50;99.90;;;;;;5080901;28;20028;-78
2024/01/02 07:58:38;;;;;;;0.10;0.10;;;7.50;99.90;;;;;;5074349;28;20032;-76
2024/01/02 08:01:04;;;;;;;0.10;0.10;;;7.50;99.90;;;;;;5078361;28;20044;-87
2024/01/02 08:03:30;;;;;;;0.63;0.63;;;7.60;99.90;;;;;;5083306;28;20465;-81
2024/01/02 08:05:56;;;;;;;0.10;0.10;;;7.60;99.90;;;;;;5083051;28;20055;-80
2024/01/02 08:08:22;;;;;;;0.10;0.10;;;7.60;99.90;;;;;;5080887;28;20032;-78
2024/01/02 08:10:49;;;;;;;1.25;1.15;;;7.60;99.90;;;;;;5076286;28;20366;-83
2024/01/02 08:13:15;;;;;;;3.15;1.85;;;7.70;99.90;;;;;;5065241;28;20037;-81
2024/01/02 08:15:41;;;;;;;0.38;0.38;;;7.70;99.90;;;;;;5078573;28;20036;-80
2024/01/02 08:18:07;;;;;;;1.02;0.77;;;7.80;99.90;;;;;;5067578;28;20401;-78
2024/01/02 08:20:34;;;;;;;0.50;0.50;;;7.80;99.90;;;;;;5076092;28;20032;-77
2024/01/02 08:23:00;;;;;;;0.55;0.50;;;7.80;99.50;;;;;;5080323;28;20028;-79
2024/01/02 08:25:26;;;;;;;2.38;2.17;;;7.80;95.70;;;;;;5077194;28;20048;-77
2024/01/02 08:27:52;;;;;;;0.60;0.60;;;8.00;85.30;;;;;;5082072;28;20027;-82
2024/01/02 08:30:19;;;;;;;0.10;0.10;;;7.90;70.70;;;;;;5075191;28;20039;-80
2024/01/02 08:32:45;;;;;;;0.10;0.10;;;7.90;63.80;;;;;;5083005;28;20036;-80
2024/01/02 08:35:11;;;;;;;0.10;0.10;;;8.00;54.80;;;;;;5081380;28;20067;-80
2024/01/02 08:37:40;;;;;;;0.10;0.10;;;8.10;43.70;;;;;;5078471;28;20036;-83
2024/01/02 08:40:06;;;;;;;0.10;0.10;;;8.10;37.30;;;;;;5081357;28;20032;-81
2024/01/02 08:42:32;;;;;;;0.10;0.10;;;8.10;34.70;;;;;;5080484;28;20044;-81
2024/01/02 08:44:59;;;;;;;0.47;0.47;;;8.10;27.80;;;;;;5081532;28;20362;-80
2024/01/02 08:47:25;;;;;;;0.10;0.10;;;8.10;22.00;;;;;;5077117;28;20028;-80
2024/01/02 08:49:51;;;;;;;0.43;0.43;;;8.10;21.30;;;;;;5079738;28;20028;-82
2024/01/02 08:52:17;;;;;;;2.75;0.95;;;8.10;22.20;;;;;;5076028;28;20052;-83
2024/01/02 08:54:44;;;;;;;0.55;0.55;;;8.10;27.00;;;;;;5080734;28;20476;-83
2024/01/02 08:57:10;;;;;;;0.13;0.10;;;8.10;33.50;;;;;;5080533;28;20036;-83
2024/01/02 08:59:37;;;;;;;0.15;0.15;;;8.20;39.30;;;;;;5075377;28;20028;-82
2024/01/02 09:02:03;;;;;;;0.20;0.20;;;8.10;41.60;;;;;;5077840;28;20378;-81
2024/01/02 09:04:29;;;;;;;0.20;0.20;;;8.20;34.10;;;;;;5081070;28;20051;-79
2024/01/02 09:06:56;;;;;;;0.28;0.28;;;8.20;25.90;;;;;;5076529;28;20040;-80
2024/01/02 09:09:23;;;;;;;2.67;2.20;;;8.20;22.30;;;;;;5052361;28;20036;-80
2024/01/02 09:11:49;;;;;;;7.72;3.47;;;8.20;22.70;;;;;;5078960;28;20035;-79
2024/01/02 09:14:15;;;;;;;2.20;2.08;;;8.30;19.90;;;;;;5083085;28;20040;-78
2024/01/02 09:16:43;;;;;;;4.35;3.25;;;8.30;17.00;;;;;;5075430;28;20377;-79
2024/01/02 09:19:09;;;;;;;2.00;1.42;;;8.30;20.50;;;;;;5058408;28;20071;-76
2024/01/02 09:21:35;;;;;;;0.98;0.95;;;8.30;16.70;;;;;;5063762;28;20047;-76
2024/01/02 09:24:02;;;;;;;3.35;3.05;;;8.30;7.70;;;;;;5074945;28;20037;-77
2024/01/02 09:26:30;;;;;;;3.10;1.92;;;8.30;8.20;;;;;;5063072;28;20063;-77
2024/01/02 09:28:57;;;;;;;0.70;0.70;;;8.30;11.10;;;;;;5084318;28;20468;-77
2024/01/02 09:31:26;;;;;;;1.83;1.73;;;8.30;16.70;;;;;;5075880;28;20049;-76
2024/01/02 09:33:52;;;;;;;1.52;1.42;;;8.30;21.80;;;;;;5066980;28;20508;-76
2024/01/02 09:36:19;;;;;;;1.25;1.15;;;8.30;25.30;;;;;;5083579;28;20048;-77
2024/01/02 09:38:45;;;;;;;0.52;0.43;;;8.30;32.50;;;;;;5094909;28;20024;-77
2024/01/02 09:41:29;;;;;;;0.40;0.40;;;8.30;38.80;;;;;;5085959;28;20036;-78
2024/01/02 09:44:22;;;;;;;1.00;1.00;;;8.20;49.00;;;;;;5072429;28;20032;-79
2024/01/02 09:47:10;;;;;;;1.52;1.42;;;8.20;57.50;;;;;;5068466;28;20051;-80
2024/01/02 09:49:44;;;;;;;0.55;0.55;;;8.20;64.90;;;;;;5076265;28;20028;-80
2024/01/02 09:52:26;;;;;;;0.63;0.63;;;8.20;58.40;;;;;;5060201;28;20059;-79
2024/01/02 09:55:01;;;;;;;0.63;0.63;;;8.20;67.70;;;;;;5049635;28;20048;-77
2024/01/02 09:57:36;;;;;;;0.55;0.55;;;8.30;73.20;;;;;;5078119;28;20057;-78
2024/01/02 10:00:11;;;;;;;0.77;0.70;;;8.20;80.30;;;;;;5064179;28;20040;-78
2024/01/02 10:02:44;;;;;;;0.20;0.20;;;8.30;76.60;;;;;;5033313;28;20062;-77
2024/01/02 10:05:49;;;;;;;0.32;0.32;;;8.30;59.60;;;;;;5065457;28;20059;-77
2024/01/02 10:08:44;;;;;;;0.40;0.40;;;8.30;52.50;;;;;;5077312;28;20029;-78
2024/01/02 10:11:34;;;;;;;0.30;0.30;;;8.30;38.60;;;;;;5077094;28;20052;-77
2024/01/02 10:14:23;;;;;;;0.85;0.63;;;8.40;16.20;;;;;;5075699;28;20032;-77
2024/01/02 10:17:03;;;;;;;0.82;0.73;;;8.40;7.00;;;;;;5080701;28;20028;-76
2024/01/02 10:19:54;;;;;;;0.23;0.23;;;8.40;1.00;;;;;;5041201;28;20047;-76
2024/01/02 10:22:53;;;;;;;0.10;0.10;;;8.50;1.00;;;;;;5066550;28;20041;-76
2024/01/02 10:25:20;;;;;;;0.17;0.17;;;8.50;1.00;;;;;;5054951;28;20043;-75
2024/01/02 10:28:27;;;;;;;0.10;0.10;;;8.60;1.00;;;;;;5064275;28;20048;-76
2024/01/02 10:31:03;;;;;;;0.10;0.10;;;8.60;1.00;;;;;;5066433;28;20035;-76
2024/01/02 10:33:36;;;;;;;0.10;0.10;;;8.60;1.00;;;;;;5063548;28;20024;-75
2024/01/02 10:36:05;;;;;;;0.10;0.10;;;8.70;1.00;;;;;;5048970;28;20049;-75
2024/01/02 10:38:53;;;;;;;0.10;0.10;;;8.70;1.00;;;;;;5048739;28;20033;-75
2024/01/02 10:41:26;;;;;;;0.10;0.10;;;8.70;1.00;;;;;;5073519;28;20040;-75
2024/01/02 10:44:28;;;;;;;0.10;0.10;;;8.80;1.00;;;;;;5069133;28;20039;-75
2024/01/02 10:47:10;;;;;;;0.10;0.10;;;8.80;1.00;;;;;;5053305;28;20039;-75
2024/01/02 10:49:55;;;;;;;0.10;0.10;;;8.80;1.00;;;;;;5065298;28;20032;-74
2024/01/02 10:52:43;;;;;;;0.10;0.10;;;8.80;1.00;;;;;;5052578;28;20503;-75
2024/01/02 10:55:23;;;;;;;0.10;0.10;;;8.80;1.00;;;;;;5068767;28;20381;-76
2024/01/02 10:58:15;;;;;;;0.10;0.10;;;8.90;1.00;;;;;;5069323;28;20029;-76
2024/01/02 11:00:50;;;;;;;0.75;0.28;;;8.90;1.00;;;;;;5065398;28;20389;-76
2024/01/02 11:03:19;;;;;;;0.10;0.10;;;9.00;1.00;;;;;;5071307;28;20385;-76
2024/01/02 11:06:04;;;;;;;0.10;0.10;;;9.00;1.00;;;;;;5033901;28;20036;-75
2024/01/02 11:08:40;;;;;;;0.10;0.10;;;9.00;1.00;;;;;;5052074;28;20036;-76
2024/01/02 11:11:09;;;;;;;0.10;0.10;;;8.90;1.00;;;;;;5064873;28;20028;-75
2024/01/02 11:13:39;;;;;;;0.10;0.10;;;9.00;1.00;;;;;;5052312;28;20167;-76
2024/01/02 11:16:20;;;;;;;0.10;0.10;;;9.10;1.00;;;;;;5035254;28;20064;-77
2024/01/02 11:18:58;;;;;;;0.10;0.10;;;9.10;1.00;;;;;;5033186;28;20043;-77
2024/01/02 11:21:30;;;;;;;0.20;0.20;;;9.10;1.00;;;;;;5051958;28;20040;-77
2024/01/02 11:24:00;;;;;;;0.10;0.10;;;9.10;1.00;;;;;;5065052;28;20056;-77
2024/01/02 11:26:33;;;;;;;0.10;0.10;;;9.00;1.00;;;;;;5033296;28;20044;-76
2024/01/02 11:29:03;;;;;;;0.10;0.10;;;9.00;1.00;;;;;;5066326;28;20029;-77
2024/01/02 11:31:35;;;;;;;0.10;0.10;;;9.10;1.00;;;;;;5049278;28;20421;-75
2024/01/02 11:34:26;;;;;;;0.10;0.10;;;9.00;1.00;;;;;;5051212;28;20385;-76
2024/01/02 11:37:18;;;;;;;0.10;0.10;;;9.00;1.00;;;;;;5075978;28;20052;-76
2024/01/02 11:39:53;;;;;;;0.10;0.10;;;9.00;1.00;;;;;;5066553;28;20038;-76
2024/01/02 11:42:42;;;;;;;0.10;0.10;;;9.00;1.00;;;;;;5079225;28;20389;-75
2024/01/02 11:45:15;;;;;;;0.10;0.10;;;9.00;1.00;;;;;;5049689;28;20040;-75
2024/01/02 11:47:43;;;;;;;0.10;0.10;;;9.00;1.00;;;;;;5085638;28;20032;-75
2024/01/02 11:50:11;;;;;;;0.10;0.10;;;8.90;1.00;;;;;;5081544;28;20024;-75
2024/01/02 11:52:57;;;;;;;0.10;0.10;;;8.90;1.00;;;;;;5077536;28;20048;-77
2024/01/02 11:55:27;;;;;;;0.10;0.10;;;8.90;1.00;;;;;;5078277;28;20032;-76
2024/01/02 11:57:54;;;;;;;0.28;0.28;;;8.90;1.20;;;;;;5063687;28;20032;-76
2024/01/02 12:00:30;;;;;;;0.10;0.10;;;8.80;13.40;;;;;;5078447;28;20047;-75
2024/01/02 12:03:06;;;;;;;0.43;0.38;;;8.80;33.30;;;;;;5080284;28;20032;-76
2024/01/02 12:05:39;;;;;;;0.10;0.10;;;8.80;64.40;;;;;;5076916;28;20036;-77
2024/01/02 12:08:10;;;;;;;0.10;0.10;;;8.80;91.70;;;;;;5082215;28;20047;-76
2024/01/02 12:10:41;;;;;;;;;;;8.70;96.90;;;;;;5074731;28;20388;-76
2024/01/02 12:13:28;;;;;;;0.20;0.20;;;8.70;99.90;;;;;;5079592;28;19927;-76
2024/01/02 12:16:03;;;;;;;0.28;0.28;;;8.70;99.90;;;;;;5078958;28;20388;-75
2024/01/02 12:18:34;;;;;;;0.10;0.10;;;8.70;99.90;;;;;;5076237;28;20061;-76
2024/01/02 12:21:04;;;;;;;0.20;0.20;;;8.70;99.90;;;;;;5078392;28;20058;-75
2024/01/02 12:23:33;;;;;;;0.30;0.30;;;8.70;99.90;;;;;;5079478;28;20043;-76
2024/01/02 12:26:04;;;;;;;1.05;0.57;;;8.70;99.90;;;;;;5083665;28;20036;-75
2024/01/02 12:28:34;;;;;;;0.10;0.10;;;8.70;99.90;;;;;;5084634;28;20071;-76
2024/01/02 12:31:23;;;;;;;0.10;0.10;;;8.70;99.90;;;;;;5064610;28;20048;-74
2024/01/02 12:34:06;;;;;;;0.10;0.10;;;8.70;99.90;;;;;;5079918;28;20040;-74
2024/01/02 12:36:52;;;;;;;0.10;0.10;;;8.70;99.90;;;;;;5076829;28;20063;-74
2024/01/02 12:39:20;;;;;;;0.20;0.20;;;8.70;99.90;;;;;;5080308;28;20679;-74
2024/01/02 12:41:51;;;;;;;0.82;0.82;;;8.70;99.90;;;;;;5085316;28;20036;-73
2024/01/02 12:44:19;;;;;;;1.60;1.50;;;8.70;99.90;;;;;;5082414;28;20463;-74
2024/01/02 12:46:45;;;;;;;1.98;1.48;;;8.70;99.90;;;;;;5079612;28;20040;-73
2024/01/02 12:49:19;;;;;;;1.55;1.05;;;8.70;99.90;;;;;;5073315;28;20043;-73
2024/01/02 12:51:47;;;;;;;1.08;0.73;;;8.70;99.90;;;;;;5080491;28;20058;-75
2024/01/02 12:54:18;;;;;;;0.45;0.45;;;8.70;99.90;;;;;;5081963;28;20396;-74
2024/01/02 12:56:50;;;;;;;0.50;0.50;;;8.80;99.90;;;;;;5080524;28;20483;-74
2024/01/02 12:59:17;;;;;;;0.20;0.20;;;8.80;99.90;;;;;;5079216;28;20032;-74
2024/01/02 13:01:45;;;;;;;0.10;0.10;;;8.80;99.90;;;;;;5080944;28;20025;-74
2024/01/02 13:04:14;;;;;;;2.22;0.57;;;8.80;99.90;;;;;;5077061;28;20032;-74
2024/01/02 13:06:41;;;;;;;0.30;0.30;;;8.80;99.90;;;;;;5083201;28;20464;-75
2024/01/02 13:09:13;;;;;;;0.50;0.50;;;8.80;99.90;;;;;;5082382;28;20460;-75